Time;durP1;ratioP1;P1;durP2;ratioP2;P2;SDS_P1;SDS_P2;PMS_P1;PMS_P2;Temp;Humidity;BMP_temperature;BMP_pressure;BME280_temperature;BME280_humidity;BME280_pressure;Samples;Min_cycle;Max_cycle;Signal;HPM_P1;HPM_P2
2021/11/08 00:01:08;;;;;;;3.37;2.17;;;;;;;8.91;69.62;99535.28;5085762;28;20239;-79
2021/11/08 00:03:42;;;;;;;2.90;2.50;;;;;;;9.08;68.79;99530.28;5086000;28;20592;-80
2021/11/08 00:06:11;;;;;;;2.40;2.20;;;;;;;9.08;68.80;99511.56;5086616;28;20524;-82
2021/11/08 00:08:40;;;;;;;2.27;2.00;;;;;;;9.13;68.62;99520.59;5085525;28;20310;-80
2021/11/08 00:11:07;;;;;;;2.37;1.87;;;;;;;9.23;68.74;99531.66;5085375;28;20229;-80
2021/11/08 00:13:37;;;;;;;2.03;1.73;;;;;;;9.23;68.72;99525.47;5069043;28;20307;-80
2021/11/08 00:21:32;;;;;;;2.57;1.67;;;;;;;9.26;68.76;99525.03;5085622;28;20296;-84
2021/11/08 00:24:10;;;;;;;2.67;1.90;;;;;;;9.38;68.30;99536.69;5069801;28;20262;-81
2021/11/08 00:26:42;;;;;;;1.80;1.50;;;;;;;9.40;68.10;99545.34;5084905;28;20258;-80
2021/11/08 00:29:12;;;;;;;1.80;1.70;;;;;;;9.37;68.26;99544.94;5083865;28;20230;-80
2021/11/08 00:31:41;;;;;;;1.80;1.60;;;;;;;9.21;68.99;99543.56;5081569;28;20239;-79
2021/11/08 00:34:09;;;;;;;2.37;1.70;;;;;;;9.18;69.07;99544.00;5084945;28;20322;-81
2021/11/08 00:36:38;;;;;;;1.57;1.43;;;;;;;9.13;69.25;99541.97;5068677;28;20220;-79
2021/11/08 00:39:06;;;;;;;1.60;1.50;;;;;;;9.14;69.40;99542.78;5079678;28;20247;-79
2021/11/08 00:41:35;;;;;;;1.87;1.67;;;;;;;9.08;69.47;99532.94;5085215;28;20231;-80
2021/11/08 00:44:02;;;;;;;2.03;1.40;;;;;;;9.09;69.46;99538.09;5069206;28;20564;-79
2021/11/08 00:46:29;;;;;;;1.57;1.47;;;;;;;9.14;69.66;99562.34;5084051;28;20221;-80
2021/11/08 00:49:01;;;;;;;1.50;1.40;;;;;;;9.08;69.40;99543.63;5068860;28;20232;-81
2021/11/08 00:51:28;;;;;;;1.50;1.40;;;;;;;9.10;69.27;99558.41;5068025;28;20233;-80
2021/11/08 00:53:56;;;;;;;1.30;1.20;;;;;;;9.07;69.52;99558.84;5092438;22;20320;-80
2021/11/08 00:56:32;;;;;;;1.13;1.03;;;;;;;9.09;69.42;99569.34;5068934;28;20701;-80
2021/11/08 00:59:02;;;;;;;1.33;1.23;;;;;;;9.10;69.23;99554.91;5052871;28;20235;-79
2021/11/08 01:01:30;;;;;;;1.30;1.20;;;;;;;9.10;69.34;99553.06;5086248;28;20233;-79
2021/11/08 01:04:02;;;;;;;1.60;1.10;;;;;;;9.08;69.53;99559.66;5085592;28;20232;-80
2021/11/08 01:06:39;;;;;;;1.23;1.13;;;;;;;9.11;69.53;99573.44;5086161;28;20240;-80
2021/11/08 01:09:08;;;;;;;1.20;1.00;;;;;;;9.16;69.39;99568.28;5085650;28;20228;-79
2021/11/08 01:11:37;;;;;;;1.20;1.10;;;;;;;9.06;69.40;99556.38;5084574;28;20228;-79
2021/11/08 01:14:09;;;;;;;1.30;1.20;;;;;;;9.17;69.35;99563.75;5085536;28;20537;-81
2021/11/08 01:16:37;;;;;;;1.30;1.20;;;;;;;9.23;69.39;99573.59;5092936;22;20228;-80
2021/11/08 01:19:10;;;;;;;1.17;1.07;;;;;;;9.35;68.86;99581.75;5085448;28;20261;-80
2021/11/08 01:21:38;;;;;;;0.90;0.90;;;;;;;9.27;68.84;99578.31;5086554;28;20224;-82
2021/11/08 01:24:05;;;;;;;1.20;1.20;;;;;;;9.34;68.63;99564.06;5085315;28;20307;-82
2021/11/08 01:26:34;;;;;;;1.20;1.10;;;;;;;9.40;68.61;99572.06;5052656;28;20235;-79
2021/11/08 01:29:12;;;;;;;1.20;1.10;;;;;;;9.39;68.50;99581.13;5084561;28;20228;-80
2021/11/08 01:31:41;;;;;;;1.40;1.20;;;;;;;9.39;68.65;99580.28;5083929;28;20252;-81
2021/11/08 01:34:14;;;;;;;1.40;1.30;;;;;;;9.43;68.72;99581.50;5083810;28;20240;-82
2021/11/08 01:36:49;;;;;;;1.50;1.40;;;;;;;9.41;68.40;99570.22;5084059;28;20224;-81
2021/11/08 01:39:18;;;;;;;1.87;1.77;;;;;;;9.49;68.10;99573.47;5082243;28;20277;-81
2021/11/08 01:41:48;;;;;;;1.90;1.80;;;;;;;9.50;68.20;99571.63;5083682;28;20282;-80
2021/11/08 01:44:17;;;;;;;1.97;1.80;;;;;;;9.44;67.78;99573.28;5083614;28;20225;-81
2021/11/08 01:46:44;;;;;;;2.40;2.20;;;;;;;9.58;67.47;99574.84;5067069;28;20312;-80
2021/11/08 01:49:12;;;;;;;2.10;1.90;;;;;;;9.55;67.13;99577.97;5083467;28;20294;-80
2021/11/08 01:51:43;;;;;;;2.40;2.20;;;;;;;9.63;67.16;99596.44;5084928;28;20291;-80
2021/11/08 01:54:15;;;;;;;2.10;1.90;;;;;;;9.60;67.55;99602.22;5084020;28;20239;-80
2021/11/08 01:56:42;;;;;;;2.30;2.10;;;;;;;9.67;67.63;99600.31;5067622;28;20228;-80
2021/11/08 01:59:11;;;;;;;1.97;1.87;;;;;;;9.55;68.14;99596.69;5083351;28;20227;-81
2021/11/08 02:01:39;;;;;;;2.23;2.03;;;;;;;9.49;68.29;99600.22;5085230;28;20239;-80
2021/11/08 02:04:08;;;;;;;2.50;2.20;;;;;;;9.34;68.97;99594.31;5067529;28;20234;-81
2021/11/08 02:06:36;;;;;;;2.20;2.00;;;;;;;9.37;68.97;99595.75;5067907;28;20312;-80
2021/11/08 02:09:05;;;;;;;3.10;2.30;;;;;;;9.46;68.92;99611.34;5083993;28;20234;-81
2021/11/08 02:11:35;;;;;;;2.67;2.40;;;;;;;9.41;69.36;99613.00;5092531;22;20448;-80
2021/11/08 02:14:04;;;;;;;2.80;2.60;;;;;;;9.42;69.15;99603.97;5066242;28;20267;-80
2021/11/08 02:16:31;;;;;;;2.80;2.60;;;;;;;9.41;69.23;99602.31;5082682;28;20220;-80
2021/11/08 02:18:59;;;;;;;3.07;2.77;;;;;;;9.35;69.21;99600.47;5083044;28;20232;-81
2021/11/08 02:21:29;;;;;;;3.33;2.90;;;;;;;9.55;68.66;99617.25;5066617;28;20224;-81
2021/11/08 02:23:58;;;;;;;3.30;3.00;;;;;;;9.42;69.23;99602.09;5065786;28;20255;-81
2021/11/08 02:26:27;;;;;;;3.47;3.10;;;;;;;9.45;68.72;99599.00;5067298;28;20224;-80
2021/11/08 02:28:54;;;;;;;3.37;3.07;;;;;;;9.39;69.49;99605.19;5083506;28;20225;-80
2021/11/08 02:31:23;;;;;;;3.57;3.03;;;;;;;9.44;69.22;99605.38;5067542;28;20213;-80
2021/11/08 02:33:52;;;;;;;3.97;3.50;;;;;;;9.42;69.41;99610.13;5066285;28;20311;-80
2021/11/08 02:36:21;;;;;;;3.57;3.03;;;;;;;9.42;69.68;99612.81;5066846;28;20247;-80
2021/11/08 02:38:54;;;;;;;3.23;2.90;;;;;;;9.30;70.10;99606.47;5084201;28;20288;-80
2021/11/08 02:41:26;;;;;;;3.47;3.17;;;;;;;9.34;69.70;99605.00;5066310;28;20282;-80
2021/11/08 02:43:57;;;;;;;3.17;2.80;;;;;;;9.38;69.52;99608.88;5082613;28;20228;-80
2021/11/08 02:46:28;;;;;;;3.47;2.83;;;;;;;9.24;69.96;99609.97;5082757;28;20226;-81
2021/11/08 02:48:58;;;;;;;3.53;3.23;;;;;;;9.42;69.69;99615.47;5065588;28;20246;-81
2021/11/08 02:51:31;;;;;;;3.40;2.90;;;;;;;9.33;69.91;99615.94;5067736;28;20235;-81
2021/11/08 02:54:09;;;;;;;3.37;2.97;;;;;;;9.38;69.41;99621.47;5081746;28;20235;-81
2021/11/08 02:56:37;;;;;;;3.07;2.77;;;;;;;9.43;69.06;99627.78;5082355;28;20247;-80
2021/11/08 02:59:05;;;;;;;3.20;2.90;;;;;;;9.39;69.23;99626.56;5083764;28;20662;-80
2021/11/08 03:01:33;;;;;;;3.10;2.80;;;;;;;9.49;68.99;99613.56;5065737;28;20643;-80
2021/11/08 03:04:01;;;;;;;3.27;2.97;;;;;;;9.40;69.02;99614.03;5082182;28;20227;-80
2021/11/08 03:06:31;;;;;;;3.20;2.83;;;;;;;9.38;69.18;99614.22;5068181;28;20240;-81
2021/11/08 03:09:15;;;;;;;3.60;3.20;;;;;;;9.35;69.11;99619.19;5068886;28;20331;-80
2021/11/08 03:11:42;;;;;;;3.30;3.00;;;;;;;9.40;69.04;99616.72;5085297;28;20241;-80
2021/11/08 03:14:18;;;;;;;3.50;3.13;;;;;;;9.42;69.13;99622.69;5086673;28;20279;-80
2021/11/08 03:16:49;;;;;;;3.67;3.37;;;;;;;9.50;68.76;99620.56;5068924;28;20227;-80
2021/11/08 03:19:24;;;;;;;4.00;3.53;;;;;;;9.45;68.86;99623.06;5068038;28;20235;-80
2021/11/08 03:21:54;;;;;;;4.23;3.83;;;;;;;9.40;68.98;99614.03;5052988;28;20293;-81
2021/11/08 03:27:26;;;;;;;3.90;3.50;;;;;;;9.36;69.38;99610.16;5086263;28;20231;-81
2021/11/08 03:29:53;;;;;;;4.17;3.73;;;;;;;9.32;69.19;99603.59;5068352;28;20250;-80
2021/11/08 03:32:23;;;;;;;4.47;4.07;;;;;;;9.42;69.38;99609.31;5067888;28;20295;-80
2021/11/08 03:34:58;;;;;;;4.27;3.87;;;;;;;9.34;69.12;99596.16;5085996;28;20251;-80
2021/11/08 03:37:42;;;;;;;3.83;3.53;;;;;;;9.27;69.65;99604.22;5085831;28;20228;-79
2021/11/08 03:40:18;;;;;;;5.03;4.40;;;;;;;9.17;69.63;99603.84;5085688;28;20239;-80
2021/11/08 03:42:48;;;;;;;5.80;4.20;;;;;;;9.21;69.65;99616.56;5084166;28;20251;-80
2021/11/08 03:45:22;;;;;;;4.43;4.03;;;;;;;9.25;69.81;99611.63;5069346;28;20216;-80
2021/11/08 03:47:54;;;;;;;4.33;3.90;;;;;;;9.13;69.86;99594.59;5085643;28;20235;-81
2021/11/08 03:50:34;;;;;;;4.77;4.07;;;;;;;9.28;69.53;99611.22;5085942;28;20223;-80
2021/11/08 03:53:03;;;;;;;5.07;4.50;;;;;;;9.20;69.37;99606.06;5085597;28;20225;-80
2021/11/08 03:55:31;;;;;;;5.23;4.17;;;;;;;9.29;68.59;99604.81;5085649;28;20228;-80
2021/11/08 03:57:58;;;;;;;4.87;4.37;;;;;;;9.31;68.72;99617.97;5067606;28;20225;-80
2021/11/08 04:00:29;;;;;;;5.73;4.20;;;;;;;9.26;68.86;99613.25;5084932;28;20245;-81
2021/11/08 04:02:58;;;;;;;4.83;4.33;;;;;;;9.11;69.16;99597.47;5085058;28;20237;-80
2021/11/08 04:05:34;;;;;;;4.63;4.10;;;;;;;9.26;69.21;99619.44;5084469;28;20274;-82
2021/11/08 04:08:08;;;;;;;4.67;4.17;;;;;;;9.17;68.27;99595.81;5067763;28;20228;-80
2021/11/08 04:10:37;;;;;;;4.60;4.10;;;;;;;9.26;68.66;99602.56;5086066;28;20216;-82
2021/11/08 04:13:06;;;;;;;4.37;3.93;;;;;;;9.28;68.37;99622.69;5085292;28;20235;-80
2021/11/08 04:15:43;;;;;;;4.90;3.93;;;;;;;9.22;68.39;99612.06;5067448;28;20239;-80
2021/11/08 04:18:21;;;;;;;5.30;4.03;;;;;;;9.21;68.56;99616.56;5084260;28;20229;-83
2021/11/08 04:20:50;;;;;;;4.30;3.90;;;;;;;9.22;68.12;99628.91;5050794;28;20225;-82
2021/11/08 04:23:19;;;;;;;4.73;4.30;;;;;;;9.16;68.08;99619.06;5051036;28;20255;-83
2021/11/08 04:25:46;;;;;;;4.50;4.10;;;;;;;9.34;67.77;99636.25;5068129;28;20237;-84
2021/11/08 04:28:13;;;;;;;5.47;4.90;;;;;;;9.21;67.78;99645.97;5084564;28;20224;-82
2021/11/08 04:30:43;;;;;;;5.60;4.20;;;;;;;9.23;67.76;99645.78;5084770;28;20623;-81
2021/11/08 04:35:53;;;;;;;4.60;4.07;;;;;;;9.00;68.66;99648.09;5063256;23;20243;-82
2021/11/08 04:57:05;;;;;;;5.00;4.10;;;;;;;9.02;67.88;99654.88;5062239;28;20606;-82
2021/11/08 05:32:49;;;;;;;4.73;3.90;;;;;;;8.75;68.50;99702.19;5016273;28;20231;-83
2021/11/08 05:35:20;;;;;;;6.10;4.20;;;;;;;8.89;67.75;99723.53;5022812;28;20227;-83
2021/11/08 05:37:49;;;;;;;4.37;3.90;;;;;;;8.79;67.39;99714.09;5022031;28;20286;-82
2021/11/08 05:40:26;;;;;;;6.30;3.97;;;;;;;8.82;68.10;99728.88;5027565;28;20309;-84
2021/11/08 05:42:57;;;;;;;4.80;4.40;;;;;;;8.80;67.82;99737.09;5046114;28;20229;-84
2021/11/08 05:45:30;;;;;;;5.33;4.00;;;;;;;8.84;67.88;99743.69;5045388;28;20248;-82
2021/11/08 05:48:08;;;;;;;5.63;3.80;;;;;;;8.84;67.05;99753.53;5084898;22;20246;-83
2021/11/08 05:50:42;;;;;;;5.37;3.97;;;;;;;8.77;67.37;99750.84;5046992;28;20284;-84
2021/11/08 05:53:27;;;;;;;5.17;3.83;;;;;;;8.89;66.81;99767.13;5047554;28;20682;-84
2021/11/08 06:51:25;;;;;;;7.47;3.43;;;;;;;9.60;63.90;99856.34;5089381;28;20246;-83
2021/11/08 06:53:59;;;;;;;4.60;3.30;;;;;;;9.64;64.28;99864.75;5070113;28;20288;-83
2021/11/08 06:56:28;;;;;;;5.03;3.27;;;;;;;9.63;63.85;99861.25;5054185;28;20229;-84
2021/11/08 06:58:58;;;;;;;5.80;3.40;;;;;;;9.72;63.59;99851.16;5088959;28;20238;-83
2021/11/08 07:01:28;;;;;;;3.93;3.50;;;;;;;9.78;63.08;99877.09;5087816;28;20514;-84
2021/11/08 07:03:58;;;;;;;3.70;3.20;;;;;;;9.80;63.20;99868.88;5085129;28;20229;-84
2021/11/08 07:06:29;;;;;;;3.63;3.10;;;;;;;9.97;62.54;99891.47;5068917;28;20702;-83
2021/11/08 07:08:57;;;;;;;4.07;3.20;;;;;;;9.98;62.51;99893.13;5086555;28;20515;-83
2021/11/08 07:11:26;;;;;;;5.93;3.30;;;;;;;10.08;62.35;99901.50;5069911;28;20228;-83
2021/11/08 07:14:03;;;;;;;5.93;2.83;;;;;;;10.06;62.06;99895.56;5072929;28;20209;-84
2021/11/08 07:16:32;;;;;;;4.80;2.80;;;;;;;9.99;62.25;99892.06;5089383;28;20231;-84
2021/11/08 07:19:00;;;;;;;3.53;2.93;;;;;;;10.14;61.94;99917.56;5071536;28;20248;-83
2021/11/08 07:21:32;;;;;;;3.87;2.73;;;;;;;10.28;61.50;99914.88;5086420;28;20309;-83
2021/11/08 07:24:00;;;;;;;3.70;2.93;;;;;;;10.27;61.53;99922.09;5086443;28;20227;-83
2021/11/08 07:26:28;;;;;;;3.80;2.70;;;;;;;10.39;61.36;99916.94;5087451;28;20228;-83
2021/11/08 07:28:55;;;;;;;3.00;2.20;;;;;;;10.37;61.27;99892.19;5087936;28;20220;-83
2021/11/08 07:31:23;;;;;;;4.13;2.40;;;;;;;10.50;60.77;99908.22;5086123;28;20238;-83
2021/11/08 07:33:52;;;;;;;4.03;2.23;;;;;;;10.53;60.71;99907.81;5062345;28;20237;-83
2021/11/08 07:36:24;;;;;;;5.83;2.30;;;;;;;10.70;60.38;99902.78;5065961;28;20225;-83
2021/11/08 07:38:54;;;;;;;4.13;2.70;;;;;;;10.76;60.24;99896.56;5065416;28;20574;-83
2021/11/08 07:41:26;;;;;;;3.97;2.20;;;;;;;10.93;59.84;99906.56;5071595;23;20224;-83
2021/11/08 07:43:54;;;;;;;4.70;2.10;;;;;;;11.01;59.45;99908.19;5074936;28;20231;-82
2021/11/08 07:46:22;;;;;;;4.97;2.23;;;;;;;11.09;59.41;99917.81;5087979;28;20240;-82
2021/11/08 07:48:49;;;;;;;3.20;2.47;;;;;;;11.21;59.22;99919.59;5071765;28;20213;-83
2021/11/08 07:51:18;;;;;;;3.83;2.30;;;;;;;11.28;58.73;99909.66;5070732;28;20643;-84
2021/11/08 07:53:47;;;;;;;3.63;2.23;;;;;;;11.40;58.31;99917.81;5087418;28;20229;-83
2021/11/08 07:56:14;;;;;;;2.93;2.30;;;;;;;11.45;58.09;99901.88;5046880;28;20229;-83
2021/11/08 07:58:42;;;;;;;4.33;2.37;;;;;;;11.56;57.60;99906.56;5067289;28;20240;-83
2021/11/08 08:01:09;;;;;;;3.80;2.30;;;;;;;11.58;56.64;99909.81;5088732;28;20284;-83
2021/11/08 08:03:41;;;;;;;3.20;2.43;;;;;;;11.61;56.85;99914.78;5071090;28;20319;-84
2021/11/08 08:06:16;;;;;;;2.87;2.30;;;;;;;11.69;57.13;99922.53;5071652;28;20239;-84
2021/11/08 08:08:48;;;;;;;2.67;2.43;;;;;;;11.65;56.59;99920.50;5074946;28;20243;-83
2021/11/08 08:11:18;;;;;;;4.10;2.30;;;;;;;11.85;56.05;99911.25;5090673;28;20239;-84
2021/11/08 08:13:54;;;;;;;3.93;2.30;;;;;;;11.91;55.91;99918.44;5105004;22;20248;-83
2021/11/08 08:16:21;;;;;;;4.20;2.10;;;;;;;12.01;55.39;99909.88;5084386;28;20292;-83
2021/11/08 08:18:49;;;;;;;3.50;2.43;;;;;;;12.07;55.18;99905.50;5053178;28;20255;-83
2021/11/08 08:21:18;;;;;;;3.13;2.30;;;;;;;12.16;54.34;99906.84;5069948;28;20261;-84
2021/11/08 08:23:54;;;;;;;3.27;2.50;;;;;;;12.27;54.23;99922.22;5069695;23;20297;-83
2021/11/08 08:26:27;;;;;;;2.53;2.10;;;;;;;12.22;54.21;99922.06;5069695;28;20232;-83
2021/11/08 08:28:55;;;;;;;4.10;2.30;;;;;;;12.25;54.26;99909.00;5052791;28;20225;-84
2021/11/08 08:31:22;;;;;;;3.70;2.43;;;;;;;12.31;53.74;99920.72;5052102;28;20301;-83
2021/11/08 08:33:51;;;;;;;4.97;2.30;;;;;;;12.02;54.23;99924.13;5052080;28;20237;-81
2021/11/08 08:36:20;;;;;;;3.47;2.20;;;;;;;12.18;54.37;99929.72;5054066;28;20229;-83
2021/11/08 08:38:49;;;;;;;3.60;2.00;;;;;;;12.18;53.46;99926.22;5071962;28;20229;-83
2021/11/08 08:41:19;;;;;;;4.80;2.17;;;;;;;12.06;53.75;99936.06;5058842;23;20226;-83
2021/11/08 08:43:48;;;;;;;2.90;2.07;;;;;;;12.07;52.80;99930.47;5053020;28;20226;-82
2021/11/08 08:46:16;;;;;;;3.73;2.20;;;;;;;12.34;53.06;99939.91;5052735;28;20228;-83
2021/11/08 08:48:44;;;;;;;4.60;2.47;;;;;;;12.30;52.82;99937.88;5069224;28;20284;-83
2021/11/08 08:51:15;;;;;;;4.33;2.50;;;;;;;12.12;52.78;99946.75;5068906;28;20231;-82
2021/11/08 08:53:45;;;;;;;3.33;2.33;;;;;;;12.25;51.80;99953.84;5071418;28;20224;-83
2021/11/08 08:56:22;;;;;;;3.80;2.30;;;;;;;12.11;52.14;99947.78;5067861;28;20240;-84
2021/11/08 08:58:51;;;;;;;3.37;2.10;;;;;;;11.94;52.81;99970.06;5069779;28;20237;-84
2021/11/08 09:01:23;;;;;;;3.47;2.10;;;;;;;11.83;52.28;99958.16;5068606;28;20233;-84
2021/11/08 09:04:22;;;;;;;4.23;2.33;;;;;;;11.75;52.23;99974.56;5095837;22;20209;-81
2021/11/08 09:08:07;;;;;;;4.90;2.23;;;;;;;11.49;52.70;99971.00;5076414;28;20227;-81
2021/11/08 09:10:59;;;;;;;4.00;1.80;;;;;;;11.52;52.69;99968.94;5110548;22;20267;-81
2021/11/08 09:14:09;;;;;;;4.13;2.20;;;;;;;11.40;52.96;99968.78;5096203;28;20228;-81
2021/11/08 09:21:03;;;;;;;4.50;2.23;;;;;;;11.40;51.94;99974.97;5109136;22;20239;-81
2021/11/08 09:25:04;;;;;;;5.03;2.20;;;;;;;11.22;52.77;99976.75;5108730;22;20233;-80
2021/11/08 09:28:10;;;;;;;3.50;1.80;;;;;;;11.26;52.14;99988.69;5099941;22;20323;-81
2021/11/08 09:31:20;;;;;;;2.60;1.73;;;;;;;11.36;52.44;99979.13;5217407;22;20236;-81
2021/11/08 09:34:50;;;;;;;4.53;1.87;;;;;;;11.54;51.66;99996.34;5100057;22;20224;-81
2021/11/08 09:37:57;;;;;;;3.67;2.20;;;;;;;11.73;50.88;100009.66;5100735;22;20244;-81
2021/11/08 09:45:29;;;;;;;4.07;1.80;;;;;;;12.11;50.00;99998.81;5012940;28;20226;-81
2021/11/08 09:49:16;;;;;;;4.10;2.10;;;;;;;12.48;49.44;100001.56;5081075;23;20237;-81
2021/11/08 09:56:17;;;;;;;3.10;1.63;;;;;;;12.97;48.20;100000.59;5031662;28;20207;-81
2021/11/08 09:59:00;;;;;;;3.30;1.73;;;;;;;12.74;48.46;99996.72;5032178;28;20214;-81
2021/11/08 10:02:06;;;;;;;4.63;2.07;;;;;;;12.61;48.16;99996.84;5033252;28;20241;-81
2021/11/08 10:05:28;;;;;;;3.73;1.97;;;;;;;12.33;49.58;99989.31;5034817;28;20309;-81
2021/11/08 10:08:47;;;;;;;3.50;1.70;;;;;;;12.41;49.55;100004.31;5078432;23;20233;-80
2021/11/08 10:12:33;;;;;;;2.07;1.53;;;;;;;12.44;48.75;100003.06;5072554;28;20193;-81
2021/11/08 10:15:24;;;;;;;3.13;1.60;;;;;;;12.30;47.70;99997.00;5111850;23;20261;-81
2021/11/08 10:18:35;;;;;;;2.00;1.27;;;;;;;12.18;48.35;100004.94;5120959;22;20230;-81
2021/11/08 10:22:30;;;;;;;3.97;1.67;;;;;;;12.10;48.15;99975.69;5108324;22;20295;-80
2021/11/08 10:25:43;;;;;;;2.83;1.53;;;;;;;12.16;48.19;100006.22;5127743;22;20249;-80
2021/11/08 10:28:36;;;;;;;2.43;1.50;;;;;;;12.10;47.81;99996.34;5091891;28;20550;-81
2021/11/08 10:31:56;;;;;;;2.50;1.30;;;;;;;12.38;47.30;99994.00;5122437;22;20659;-81
2021/11/08 10:35:08;;;;;;;2.87;1.80;;;;;;;12.32;47.63;99979.59;5110361;28;20180;-80
2021/11/08 10:37:44;;;;;;;3.03;1.90;;;;;;;12.63;46.57;99978.66;5107488;28;20226;-83
2021/11/08 10:40:16;;;;;;;4.10;2.00;;;;;;;12.90;46.49;99989.09;5103927;28;20240;-83
2021/11/08 10:43:04;;;;;;;2.33;1.80;;;;;;;12.97;45.93;99968.31;5105044;28;20273;-81
2021/11/08 10:45:55;;;;;;;2.30;1.50;;;;;;;13.05;44.56;99981.44;5104701;28;20220;-82
2021/11/08 10:48:25;;;;;;;2.67;1.50;;;;;;;13.20;44.33;99977.31;5105699;28;20243;-82
2021/11/08 10:50:58;;;;;;;2.77;1.53;;;;;;;13.36;45.10;99986.63;5088282;28;20241;-83
2021/11/08 10:53:31;;;;;;;2.17;1.50;;;;;;;13.11;44.30;99976.00;5106413;28;20317;-82
2021/11/08 10:56:06;;;;;;;2.90;1.47;;;;;;;13.19;44.29;99986.47;5104314;28;20314;-81
2021/11/08 10:58:42;;;;;;;3.07;1.67;;;;;;;13.53;44.80;99973.34;5109236;28;20234;-81
2021/11/08 11:01:34;;;;;;;2.70;1.50;;;;;;;13.86;43.81;99972.81;5110472;28;20248;-81
2021/11/08 11:04:06;;;;;;;3.90;1.70;;;;;;;14.06;43.35;99971.44;5093918;28;20255;-83
2021/11/08 11:06:38;;;;;;;3.13;1.60;;;;;;;13.95;44.25;99958.75;5092026;28;20254;-82
2021/11/08 11:09:13;;;;;;;3.73;1.63;;;;;;;13.93;43.07;99970.84;5117260;22;20235;-82
2021/11/08 11:12:01;;;;;;;3.67;1.73;;;;;;;13.68;43.63;99958.38;5094291;28;20303;-82
2021/11/08 11:14:58;;;;;;;4.13;1.80;;;;;;;13.43;44.03;99949.69;5114950;28;20231;-82
2021/11/08 11:17:55;;;;;;;3.93;1.70;;;;;;;13.37;44.63;99931.75;5121459;22;20240;-81
2021/11/08 11:20:56;;;;;;;3.57;1.50;;;;;;;13.54;44.98;99958.81;5115973;28;20267;-82
2021/11/08 11:24:02;;;;;;;4.30;1.70;;;;;;;13.64;44.79;99946.44;5140849;22;20234;-80
2021/11/08 11:26:52;;;;;;;3.60;1.60;;;;;;;13.60;44.79;99955.22;5090801;22;20225;-82
2021/11/08 11:29:29;;;;;;;4.87;2.00;;;;;;;13.44;46.05;99966.63;5087498;23;20201;-81
2021/11/08 11:32:03;;;;;;;4.23;1.80;;;;;;;13.13;46.16;99957.78;5099548;23;20518;-82
2021/11/08 11:34:40;;;;;;;3.90;1.80;;;;;;;13.08;45.97;99954.09;5117077;28;20311;-84
2021/11/08 11:37:18;;;;;;;4.17;2.03;;;;;;;12.63;46.42;99934.81;5131135;22;20300;-83
2021/11/08 11:40:14;;;;;;;2.53;1.53;;;;;;;12.85;46.73;99965.56;5122576;22;20216;-83
2021/11/08 11:43:01;;;;;;;2.50;1.53;;;;;;;12.83;46.85;99966.84;5132544;22;20253;-83
2021/11/08 11:45:50;;;;;;;2.93;1.63;;;;;;;12.52;47.86;99957.88;5099549;28;20228;-82
2021/11/08 11:48:23;;;;;;;3.90;1.90;;;;;;;12.54;48.24;99963.88;5131294;22;20229;-82
2021/11/08 11:51:23;;;;;;;3.43;1.70;;;;;;;12.63;48.89;99967.91;5045071;28;20225;-82
2021/11/08 11:53:58;;;;;;;2.50;1.60;;;;;;;12.59;48.41;99961.34;5056538;28;20240;-81
2021/11/08 11:56:30;;;;;;;3.63;1.80;;;;;;;12.55;48.51;99951.25;5057817;28;20213;-81
2021/11/08 11:59:07;;;;;;;3.33;1.80;;;;;;;12.42;48.71;99940.63;5074338;28;20241;-82
2021/11/08 12:01:48;;;;;;;3.40;2.10;;;;;;;12.47;48.91;99927.34;5057866;28;20235;-82
2021/11/08 12:04:31;;;;;;;3.43;2.00;;;;;;;12.56;48.78;99936.75;5072950;28;20268;-82
2021/11/08 12:07:04;;;;;;;2.30;1.50;;;;;;;12.36;49.08;99928.94;5087637;28;20321;-82
2021/11/08 12:09:35;;;;;;;4.07;1.93;;;;;;;12.36;49.39;99937.00;5054192;28;20296;-82
2021/11/08 12:12:08;;;;;;;3.70;2.00;;;;;;;12.10;49.62;99934.56;5071376;28;20221;-82
2021/11/08 12:14:38;;;;;;;2.90;1.77;;;;;;;12.27;49.26;99931.06;5055508;28;20210;-82
2021/11/08 12:17:19;;;;;;;2.67;1.90;;;;;;;12.12;48.42;99927.13;5071207;28;20210;-83
2021/11/08 12:19:47;;;;;;;3.40;1.80;;;;;;;12.42;48.08;99929.88;5091187;23;20237;-82
2021/11/08 12:22:26;;;;;;;3.30;1.90;;;;;;;12.28;48.11;99913.91;5069759;28;20210;-82
2021/11/08 12:25:23;;;;;;;3.20;1.40;;;;;;;12.66;47.33;99908.31;5069944;28;20217;-84
2021/11/08 12:27:54;;;;;;;2.90;1.60;;;;;;;12.69;47.03;99901.66;5053519;28;20297;-82
2021/11/08 12:30:34;;;;;;;3.77;1.67;;;;;;;12.74;46.60;99897.22;5071682;28;20276;-83
2021/11/08 12:33:28;;;;;;;3.10;1.60;;;;;;;12.92;45.76;99904.47;5056467;28;20292;-81
2021/11/08 12:36:15;;;;;;;2.83;1.60;;;;;;;12.99;45.60;99890.91;5071450;28;20231;-82
2021/11/08 12:38:53;;;;;;;3.33;1.83;;;;;;;12.90;46.01;99884.22;5072535;28;20225;-83
2021/11/08 12:41:48;;;;;;;2.50;1.60;;;;;;;12.96;46.00;99896.75;5056857;28;20300;-82
2021/11/08 12:44:23;;;;;;;3.13;1.60;;;;;;;12.99;46.20;99893.59;5075028;28;20209;-82
2021/11/08 12:46:55;;;;;;;3.47;1.47;;;;;;;12.91;46.30;99881.31;5056256;28;20259;-82
2021/11/08 12:49:31;;;;;;;2.53;1.57;;;;;;;12.93;46.44;99889.94;5055830;28;20229;-82
2021/11/08 12:52:05;;;;;;;3.30;1.80;;;;;;;12.73;46.81;99884.03;5054593;28;20220;-82
2021/11/08 12:54:50;;;;;;;4.50;1.97;;;;;;;12.72;46.39;99890.44;5097857;23;20613;-82
2021/11/08 12:57:33;;;;;;;3.67;1.80;;;;;;;12.93;45.84;99887.25;5114051;28;20238;-83
2021/11/08 13:00:25;;;;;;;3.83;1.70;;;;;;;12.98;45.81;99881.19;5096536;28;20269;-82
2021/11/08 13:02:55;;;;;;;2.57;1.50;;;;;;;12.90;45.54;99881.53;5011771;28;20226;-82
2021/11/08 13:05:40;;;;;;;3.10;1.80;;;;;;;12.65;46.02;99876.25;5036134;23;20285;-82
2021/11/08 13:08:27;;;;;;;3.77;1.53;;;;;;;12.65;46.54;99870.88;5053154;28;20229;-82
2021/11/08 13:11:11;;;;;;;3.77;1.53;;;;;;;12.63;46.11;99887.25;5050999;28;20233;-82
2021/11/08 13:14:02;;;;;;;3.70;1.70;;;;;;;12.61;46.47;99878.59;5051901;28;20272;-84
2021/11/08 13:16:48;;;;;;;3.50;1.60;;;;;;;12.51;46.51;99881.00;5073805;22;20233;-83
2021/11/08 13:19:22;;;;;;;4.63;2.10;;;;;;;12.53;46.13;99878.09;5072199;28;20217;-81
2021/11/08 13:22:13;;;;;;;4.37;1.70;;;;;;;12.59;46.06;99882.56;5087178;28;20297;-81
2021/11/08 13:25:10;;;;;;;4.73;1.73;;;;;;;12.47;46.81;99887.03;5071769;28;20225;-82
2021/11/08 13:28:03;;;;;;;4.67;1.67;;;;;;;12.37;47.28;99906.38;5071785;28;20221;-82
2021/11/08 13:30:42;;;;;;;2.83;1.67;;;;;;;12.29;47.17;99907.50;5088537;28;20228;-81
2021/11/08 13:33:20;;;;;;;3.60;1.70;;;;;;;12.42;47.64;99903.84;5073976;28;20247;-81
2021/11/08 13:36:18;;;;;;;2.63;1.50;;;;;;;12.44;47.43;99903.63;5084868;23;20224;-82
2021/11/08 13:39:00;;;;;;;3.07;2.03;;;;;;;12.42;47.58;99901.16;5094251;28;20244;-82
2021/11/08 13:41:49;;;;;;;3.67;1.60;;;;;;;12.57;48.05;99904.28;5101511;22;20232;-83
2021/11/08 13:44:16;;;;;;;3.10;2.00;;;;;;;12.55;47.56;99903.69;5079302;23;20236;-81
2021/11/08 13:46:48;;;;;;;4.10;1.90;;;;;;;12.61;47.53;99905.47;5073026;28;20221;-83
2021/11/08 13:49:22;;;;;;;5.03;2.00;;;;;;;12.54;47.49;99910.13;5072546;28;20225;-81
2021/11/08 13:52:00;;;;;;;3.67;1.77;;;;;;;12.49;47.35;99904.59;5086053;23;20252;-82
2021/11/08 13:54:40;;;;;;;2.90;2.10;;;;;;;12.52;47.55;99909.50;5093473;28;20224;-82
2021/11/08 13:57:16;;;;;;;4.27;2.00;;;;;;;12.24;48.13;99904.66;5093361;28;20554;-82
2021/11/08 13:59:46;;;;;;;3.37;2.10;;;;;;;12.16;48.45;99904.97;5094588;28;20220;-82
2021/11/08 14:02:18;;;;;;;3.80;2.20;;;;;;;12.18;48.24;99916.31;5101017;23;20255;-83
2021/11/08 14:05:00;;;;;;;3.40;2.10;;;;;;;12.10;48.27;99910.41;5077302;28;20280;-82
2021/11/08 14:07:29;;;;;;;4.73;2.23;;;;;;;12.03;48.36;99910.50;5094315;28;20236;-83
2021/11/08 14:09:57;;;;;;;3.77;2.10;;;;;;;12.14;48.13;99919.66;5071053;28;20221;-83
2021/11/08 14:12:47;;;;;;;2.90;1.90;;;;;;;12.19;48.22;99930.56;5013647;28;20242;-83
2021/11/08 14:15:27;;;;;;;3.80;2.07;;;;;;;12.19;48.33;99926.00;5013999;28;20287;-81
2021/11/08 14:17:55;;;;;;;3.70;1.93;;;;;;;12.01;48.41;99895.63;5013213;28;20233;-82
2021/11/08 14:20:32;;;;;;;4.07;1.80;;;;;;;12.06;47.70;99909.22;5027726;28;20227;-82
2021/11/08 14:22:59;;;;;;;4.63;2.10;;;;;;;11.91;48.03;99907.69;5014166;28;20258;-82
2021/11/08 14:25:33;;;;;;;3.63;1.80;;;;;;;11.86;48.00;99914.78;5026660;23;20242;-81
2021/11/08 14:28:03;;;;;;;5.43;2.00;;;;;;;11.79;47.43;99908.66;5095564;28;20216;-84
2021/11/08 14:30:32;;;;;;;2.10;1.50;;;;;;;11.67;48.04;99919.25;5110858;28;20232;-81
2021/11/08 14:33:03;;;;;;;2.97;2.00;;;;;;;11.57;48.10;99920.78;5096145;28;20209;-82
2021/11/08 14:35:48;;;;;;;2.73;1.70;;;;;;;11.39;49.24;99918.84;5119131;22;20275;-81